sensor_id;sensor_type;location;lat;lon;timestamp;P1;P2;P0
30342;PMS5003;17145;49.902;8.680;2023-04-24T00:01:12;33;32;
30342;PMS5003;17145;49.902;8.680;2023-04-24T00:03:40;38;33;
30342;PMS5003;17145;49.902;8.680;2023-04-24T00:06:08;38;33;
30342;PMS5003;17145;49.902;8.680;2023-04-24T00:08:35;38;35;
30342;PMS5003;17145;49.902;8.680;2023-04-24T00:11:02;35;33;
30342;PMS5003;17145;49.902;8.680;2023-04-24T00:13:30;50;36;
30342;PMS5003;17145;49.902;8.680;2023-04-24T00:15:57;43;36;
30342;PMS5003;17145;49.902;8.680;2023-04-24T00:18:25;38;33;
30342;PMS5003;17145;49.902;8.680;2023-04-24T00:20:52;38;36;
30342;PMS5003;17145;49.902;8.680;2023-04-24T00:23:20;32;31;
30342;PMS5003;17145;49.902;8.680;2023-04-24T00:25:47;35;34;
30342;PMS5003;17145;49.902;8.680;2023-04-24T00:28:14;40;30;
30342;PMS5003;17145;49.902;8.680;2023-04-24T00:30:42;41;34;
30342;PMS5003;17145;49.902;8.680;2023-04-24T00:33:09;30;29;
30342;PMS5003;17145;49.902;8.680;2023-04-24T00:35:37;35;35;
30342;PMS5003;17145;49.902;8.680;2023-04-24T00:38:04;44;36;
30342;PMS5003;17145;49.902;8.680;2023-04-24T00:40:32;34;31;
30342;PMS5003;17145;49.902;8.680;2023-04-24T00:42:59;35;32;
30342;PMS5003;17145;49.902;8.680;2023-04-24T00:45:27;33;33;
30342;PMS5003;17145;49.902;8.680;2023-04-24T00:47:54;41;35;
30342;PMS5003;17145;49.902;8.680;2023-04-24T00:50:23;29;29;
30342;PMS5003;17145;49.902;8.680;2023-04-24T00:52:51;38;31;
30342;PMS5003;17145;49.902;8.680;2023-04-24T00:55:18;33;32;
30342;PMS5003;17145;49.902;8.680;2023-04-24T00:57:46;34;32;
30342;PMS5003;17145;49.902;8.680;2023-04-24T01:00:14;33;32;
30342;PMS5003;17145;49.902;8.680;2023-04-24T01:02:43;44;36;
30342;PMS5003;17145;49.902;8.680;2023-04-24T01:05:11;36;32;
30342;PMS5003;17145;49.902;8.680;2023-04-24T01:07:40;39;33;
30342;PMS5003;17145;49.902;8.680;2023-04-24T01:10:10;28;27;
30342;PMS5003;17145;49.902;8.680;2023-04-24T01:12:37;32;28;
30342;PMS5003;17145;49.902;8.680;2023-04-24T01:15:05;36;31;
30342;PMS5003;17145;49.902;8.680;2023-04-24T01:17:34;29;29;
30342;PMS5003;17145;49.902;8.680;2023-04-24T01:20:01;38;31;
30342;PMS5003;17145;49.902;8.680;2023-04-24T01:22:29;39;30;
30342;PMS5003;17145;49.902;8.680;2023-04-24T01:24:57;31;29;
30342;PMS5003;17145;49.902;8.680;2023-04-24T01:27:24;40;33;
30342;PMS5003;17145;49.902;8.680;2023-04-24T01:29:52;37;35;
30342;PMS5003;17145;49.902;8.680;2023-04-24T01:32:19;44;38;
30342;PMS5003;17145;49.902;8.680;2023-04-24T01:34:46;29;28;
30342;PMS5003;17145;49.902;8.680;2023-04-24T01:37:15;31;27;
30342;PMS5003;17145;49.902;8.680;2023-04-24T01:39:42;27;27;
30342;PMS5003;17145;49.902;8.680;2023-04-24T01:42:10;28;25;
30342;PMS5003;17145;49.902;8.680;2023-04-24T01:44:38;32;30;
30342;PMS5003;17145;49.902;8.680;2023-04-24T01:47:06;28;27;
30342;PMS5003;17145;49.902;8.680;2023-04-24T01:49:34;27;26;
30342;PMS5003;17145;49.902;8.680;2023-04-24T01:52:01;38;30;
30342;PMS5003;17145;49.902;8.680;2023-04-24T01:54:29;23;23;
30342;PMS5003;17145;49.902;8.680;2023-04-24T01:56:56;26;26;
30342;PMS5003;17145;49.902;8.680;2023-04-24T01:59:23;29;22;
30342;PMS5003;17145;49.902;8.680;2023-04-24T02:01:54;22;22;
30342;PMS5003;17145;49.902;8.680;2023-04-24T02:04:21;24;23;
30342;PMS5003;17145;49.902;8.680;2023-04-24T02:06:49;32;25;
30342;PMS5003;17145;49.902;8.680;2023-04-24T02:09:16;36;28;
30342;PMS5003;17145;49.902;8.680;2023-04-24T02:11:43;27;22;
30342;PMS5003;17145;49.902;8.680;2023-04-24T02:14:11;24;23;
30342;PMS5003;17145;49.902;8.680;2023-04-24T02:16:39;40;35;
30342;PMS5003;17145;49.902;8.680;2023-04-24T02:19:06;23;22;
30342;PMS5003;17145;49.902;8.680;2023-04-24T02:21:34;23;22;
30342;PMS5003;17145;49.902;8.680;2023-04-24T02:24:01;22;21;
30342;PMS5003;17145;49.902;8.680;2023-04-24T02:26:29;31;29;
30342;PMS5003;17145;49.902;8.680;2023-04-24T02:28:56;28;27;
30342;PMS5003;17145;49.902;8.680;2023-04-24T02:31:24;32;31;
30342;PMS5003;17145;49.902;8.680;2023-04-24T02:33:51;22;22;
30342;PMS5003;17145;49.902;8.680;2023-04-24T02:36:19;21;20;
30342;PMS5003;17145;49.902;8.680;2023-04-24T02:38:46;22;21;
30342;PMS5003;17145;49.902;8.680;2023-04-24T02:41:14;21;20;
30342;PMS5003;17145;49.902;8.680;2023-04-24T02:43:41;22;22;
30342;PMS5003;17145;49.902;8.680;2023-04-24T02:46:08;32;24;
30342;PMS5003;17145;49.902;8.680;2023-04-24T02:48:36;21;21;
30342;PMS5003;17145;49.902;8.680;2023-04-24T02:51:03;21;19;
30342;PMS5003;17145;49.902;8.680;2023-04-24T02:53:31;18;17;
30342;PMS5003;17145;49.902;8.680;2023-04-24T02:55:58;20;20;
30342;PMS5003;17145;49.902;8.680;2023-04-24T02:58:26;21;21;
30342;PMS5003;17145;49.902;8.680;2023-04-24T03:00:53;35;30;
30342;PMS5003;17145;49.902;8.680;2023-04-24T03:03:21;31;31;
30342;PMS5003;17145;49.902;8.680;2023-04-24T03:05:49;40;36;
30342;PMS5003;17145;49.902;8.680;2023-04-24T03:08:17;34;33;
30342;PMS5003;17145;49.902;8.680;2023-04-24T03:10:44;30;25;
30342;PMS5003;17145;49.902;8.680;2023-04-24T03:13:11;23;18;
30342;PMS5003;17145;49.902;8.680;2023-04-24T03:15:39;43;43;
30342;PMS5003;17145;49.902;8.680;2023-04-24T03:18:06;20;18;
30342;PMS5003;17145;49.902;8.680;2023-04-24T03:20:34;21;19;
30342;PMS5003;17145;49.902;8.680;2023-04-24T03:23:01;20;20;
30342;PMS5003;17145;49.902;8.680;2023-04-24T03:25:28;20;20;
30342;PMS5003;17145;49.902;8.680;2023-04-24T03:27:55;22;22;
30342;PMS5003;17145;49.902;8.680;2023-04-24T03:30:23;18;18;
30342;PMS5003;17145;49.902;8.680;2023-04-24T03:32:50;19;18;
30342;PMS5003;17145;49.902;8.680;2023-04-24T03:35:17;25;22;
30342;PMS5003;17145;49.902;8.680;2023-04-24T03:37:45;26;26;
30342;PMS5003;17145;49.902;8.680;2023-04-24T03:40:12;21;20;
30342;PMS5003;17145;49.902;8.680;2023-04-24T03:42:40;19;19;
30342;PMS5003;17145;49.902;8.680;2023-04-24T03:45:08;16;16;
30342;PMS5003;17145;49.902;8.680;2023-04-24T03:47:36;21;21;
30342;PMS5003;17145;49.902;8.680;2023-04-24T03:50:03;21;20;
30342;PMS5003;17145;49.902;8.680;2023-04-24T03:52:32;20;19;
30342;PMS5003;17145;49.902;8.680;2023-04-24T03:54:59;29;22;
30342;PMS5003;17145;49.902;8.680;2023-04-24T03:57:26;26;20;
30342;PMS5003;17145;49.902;8.680;2023-04-24T03:59:54;20;19;
30342;PMS5003;17145;49.902;8.680;2023-04-24T04:02:21;21;20;
30342;PMS5003;17145;49.902;8.680;2023-04-24T04:04:48;21;19;
30342;PMS5003;17145;49.902;8.680;2023-04-24T04:07:16;49;48;
30342;PMS5003;17145;49.902;8.680;2023-04-24T04:09:43;19;19;
30342;PMS5003;17145;49.902;8.680;2023-04-24T04:12:11;20;20;
30342;PMS5003;17145;49.902;8.680;2023-04-24T04:14:38;30;22;
30342;PMS5003;17145;49.902;8.680;2023-04-24T04:17:05;18;17;
30342;PMS5003;17145;49.902;8.680;2023-04-24T04:19:33;20;19;
30342;PMS5003;17145;49.902;8.680;2023-04-24T04:22:00;17;17;
30342;PMS5003;17145;49.902;8.680;2023-04-24T04:24:27;35;34;
30342;PMS5003;17145;49.902;8.680;2023-04-24T04:26:55;20;20;
30342;PMS5003;17145;49.902;8.680;2023-04-24T04:29:22;18;17;
30342;PMS5003;17145;49.902;8.680;2023-04-24T04:31:50;16;15;
30342;PMS5003;17145;49.902;8.680;2023-04-24T04:34:17;17;17;
30342;PMS5003;17145;49.902;8.680;2023-04-24T04:36:44;19;19;
30342;PMS5003;17145;49.902;8.680;2023-04-24T04:39:12;19;18;
30342;PMS5003;17145;49.902;8.680;2023-04-24T04:41:39;18;17;
30342;PMS5003;17145;49.902;8.680;2023-04-24T04:44:07;15;15;
30342;PMS5003;17145;49.902;8.680;2023-04-24T04:46:34;15;15;
30342;PMS5003;17145;49.902;8.680;2023-04-24T04:49:02;22;17;
30342;PMS5003;17145;49.902;8.680;2023-04-24T04:51:29;16;16;
30342;PMS5003;17145;49.902;8.680;2023-04-24T04:53:57;19;18;
30342;PMS5003;17145;49.902;8.680;2023-04-24T04:56:24;17;16;
30342;PMS5003;17145;49.902;8.680;2023-04-24T04:58:51;18;18;
30342;PMS5003;17145;49.902;8.680;2023-04-24T05:01:19;16;16;
30342;PMS5003;17145;49.902;8.680;2023-04-24T05:03:46;15;15;
30342;PMS5003;17145;49.902;8.680;2023-04-24T05:06:14;16;16;
30342;PMS5003;17145;49.902;8.680;2023-04-24T05:08:41;21;18;
30342;PMS5003;17145;49.902;8.680;2023-04-24T05:11:09;20;16;
30342;PMS5003;17145;49.902;8.680;2023-04-24T05:13:36;16;16;
30342;PMS5003;17145;49.902;8.680;2023-04-24T05:16:04;14;14;
30342;PMS5003;17145;49.902;8.680;2023-04-24T05:18:31;16;16;
30342;PMS5003;17145;49.902;8.680;2023-04-24T05:20:58;13;13;
30342;PMS5003;17145;49.902;8.680;2023-04-24T05:23:26;15;14;
30342;PMS5003;17145;49.902;8.680;2023-04-24T05:25:53;14;14;
30342;PMS5003;17145;49.902;8.680;2023-04-24T05:28:21;13;13;
30342;PMS5003;17145;49.902;8.680;2023-04-24T05:30:48;13;12;
30342;PMS5003;17145;49.902;8.680;2023-04-24T05:33:15;56;56;
30342;PMS5003;17145;49.902;8.680;2023-04-24T05:35:43;114;112;
30342;PMS5003;17145;49.902;8.680;2023-04-24T05:38:10;49;48;
30342;PMS5003;17145;49.902;8.680;2023-04-24T05:40:38;21;15;
30342;PMS5003;17145;49.902;8.680;2023-04-24T05:43:06;21;15;
30342;PMS5003;17145;49.902;8.680;2023-04-24T05:45:33;92;84;
30342;PMS5003;17145;49.902;8.680;2023-04-24T05:48:00;48;41;
30342;PMS5003;17145;49.902;8.680;2023-04-24T05:50:28;38;32;
30342;PMS5003;17145;49.902;8.680;2023-04-24T05:52:55;27;22;
30342;PMS5003;17145;49.902;8.680;2023-04-24T05:55:23;25;20;
30342;PMS5003;17145;49.902;8.680;2023-04-24T05:57:50;27;20;
30342;PMS5003;17145;49.902;8.680;2023-04-24T06:00:18;39;33;
30342;PMS5003;17145;49.902;8.680;2023-04-24T06:02:45;15;14;
30342;PMS5003;17145;49.902;8.680;2023-04-24T06:05:13;13;13;
30342;PMS5003;17145;49.902;8.680;2023-04-24T06:07:40;14;13;
30342;PMS5003;17145;49.902;8.680;2023-04-24T06:10:08;13;12;
30342;PMS5003;17145;49.902;8.680;2023-04-24T06:12:36;15;15;
30342;PMS5003;17145;49.902;8.680;2023-04-24T06:15:04;34;29;
30342;PMS5003;17145;49.902;8.680;2023-04-24T06:17:32;31;26;
30342;PMS5003;17145;49.902;8.680;2023-04-24T06:20:00;14;14;
30342;PMS5003;17145;49.902;8.680;2023-04-24T06:22:27;15;15;
30342;PMS5003;17145;49.902;8.680;2023-04-24T06:24:55;13;12;
30342;PMS5003;17145;49.902;8.680;2023-04-24T06:27:22;13;12;
30342;PMS5003;17145;49.902;8.680;2023-04-24T06:29:50;7;7;
30342;PMS5003;17145;49.902;8.680;2023-04-24T06:32:17;8;8;
30342;PMS5003;17145;49.902;8.680;2023-04-24T06:34:44;6;6;
30342;PMS5003;17145;49.902;8.680;2023-04-24T06:37:12;5;5;
30342;PMS5003;17145;49.902;8.680;2023-04-24T06:39:39;4;4;
30342;PMS5003;17145;49.902;8.680;2023-04-24T06:42:07;4;4;
30342;PMS5003;17145;49.902;8.680;2023-04-24T06:44:34;5;5;
30342;PMS5003;17145;49.902;8.680;2023-04-24T06:47:02;4;4;
30342;PMS5003;17145;49.902;8.680;2023-04-24T06:49:30;3;3;
30342;PMS5003;17145;49.902;8.680;2023-04-24T06:51:57;2;2;
30342;PMS5003;17145;49.902;8.680;2023-04-24T06:54:24;5;4;
30342;PMS5003;17145;49.902;8.680;2023-04-24T06:56:52;4;4;
30342;PMS5003;17145;49.902;8.680;2023-04-24T06:59:19;4;4;
30342;PMS5003;17145;49.902;8.680;2023-04-24T07:01:47;3;3;
30342;PMS5003;17145;49.902;8.680;2023-04-24T07:04:14;4;4;
30342;PMS5003;17145;49.902;8.680;2023-04-24T07:06:41;4;4;
30342;PMS5003;17145;49.902;8.680;2023-04-24T07:09:09;3;3;
30342;PMS5003;17145;49.902;8.680;2023-04-24T07:11:36;4;4;
30342;PMS5003;17145;49.902;8.680;2023-04-24T07:14:03;6;5;
30342;PMS5003;17145;49.902;8.680;2023-04-24T07:16:31;9;9;
30342;PMS5003;17145;49.902;8.680;2023-04-24T07:18:58;8;8;
30342;PMS5003;17145;49.902;8.680;2023-04-24T07:21:25;7;7;
30342;PMS5003;17145;49.902;8.680;2023-04-24T07:23:53;13;13;
30342;PMS5003;17145;49.902;8.680;2023-04-24T07:26:20;9;9;
30342;PMS5003;17145;49.902;8.680;2023-04-24T07:28:48;8;8;
30342;PMS5003;17145;49.902;8.680;2023-04-24T07:31:15;5;5;
30342;PMS5003;17145;49.902;8.680;2023-04-24T07:33:43;5;4;
30342;PMS5003;17145;49.902;8.680;2023-04-24T07:36:10;7;6;
30342;PMS5003;17145;49.902;8.680;2023-04-24T07:38:38;6;5;
30342;PMS5003;17145;49.902;8.680;2023-04-24T07:41:05;5;5;
30342;PMS5003;17145;49.902;8.680;2023-04-24T07:43:33;6;6;
30342;PMS5003;17145;49.902;8.680;2023-04-24T07:46:01;9;8;
30342;PMS5003;17145;49.902;8.680;2023-04-24T07:48:28;11;11;
30342;PMS5003;17145;49.902;8.680;2023-04-24T07:50:56;11;11;
30342;PMS5003;17145;49.902;8.680;2023-04-24T07:53:23;11;10;
30342;PMS5003;17145;49.902;8.680;2023-04-24T07:55:50;9;9;
30342;PMS5003;17145;49.902;8.680;2023-04-24T07:58:18;8;8;
30342;PMS5003;17145;49.902;8.680;2023-04-24T08:00:45;7;6;
30342;PMS5003;17145;49.902;8.680;2023-04-24T08:03:12;7;7;
30342;PMS5003;17145;49.902;8.680;2023-04-24T08:05:41;8;6;
30342;PMS5003;17145;49.902;8.680;2023-04-24T08:08:08;7;6;
30342;PMS5003;17145;49.902;8.680;2023-04-24T08:10:35;7;7;
30342;PMS5003;17145;49.902;8.680;2023-04-24T08:13:03;8;8;
30342;PMS5003;17145;49.902;8.680;2023-04-24T08:15:30;6;6;
30342;PMS5003;17145;49.902;8.680;2023-04-24T08:17:58;8;8;
30342;PMS5003;17145;49.902;8.680;2023-04-24T08:20:25;9;9;
30342;PMS5003;17145;49.902;8.680;2023-04-24T08:22:52;9;8;
30342;PMS5003;17145;49.902;8.680;2023-04-24T08:25:20;7;7;
30342;PMS5003;17145;49.902;8.680;2023-04-24T08:27:47;5;5;
30342;PMS5003;17145;49.902;8.680;2023-04-24T08:30:15;6;6;
30342;PMS5003;17145;49.902;8.680;2023-04-24T08:32:42;6;6;
30342;PMS5003;17145;49.902;8.680;2023-04-24T08:35:10;6;5;
30342;PMS5003;17145;49.902;8.680;2023-04-24T08:37:37;6;6;
30342;PMS5003;17145;49.902;8.680;2023-04-24T08:40:06;5;5;
30342;PMS5003;17145;49.902;8.680;2023-04-24T08:42:41;5;5;
30342;PMS5003;17145;49.902;8.680;2023-04-24T08:45:10;4;4;
30342;PMS5003;17145;49.902;8.680;2023-04-24T08:47:39;6;5;
30342;PMS5003;17145;49.902;8.680;2023-04-24T08:50:08;5;5;
30342;PMS5003;17145;49.902;8.680;2023-04-24T08:52:37;6;6;
30342;PMS5003;17145;49.902;8.680;2023-04-24T08:55:04;5;4;
30342;PMS5003;17145;49.902;8.680;2023-04-24T08:57:32;4;3;
30342;PMS5003;17145;49.902;8.680;2023-04-24T09:00:00;5;5;
30342;PMS5003;17145;49.902;8.680;2023-04-24T09:02:27;4;4;
30342;PMS5003;17145;49.902;8.680;2023-04-24T09:04:55;6;6;
30342;PMS5003;17145;49.902;8.680;2023-04-24T09:07:24;4;4;
30342;PMS5003;17145;49.902;8.680;2023-04-24T09:09:54;5;5;
30342;PMS5003;17145;49.902;8.680;2023-04-24T09:12:22;5;5;
30342;PMS5003;17145;49.902;8.680;2023-04-24T09:14:49;7;7;
30342;PMS5003;17145;49.902;8.680;2023-04-24T09:17:17;4;4;
30342;PMS5003;17145;49.902;8.680;2023-04-24T09:19:45;5;5;
30342;PMS5003;17145;49.902;8.680;2023-04-24T09:22:12;6;6;
30342;PMS5003;17145;49.902;8.680;2023-04-24T09:24:40;6;6;
30342;PMS5003;17145;49.902;8.680;2023-04-24T09:27:08;6;6;
30342;PMS5003;17145;49.902;8.680;2023-04-24T09:29:38;7;7;
30342;PMS5003;17145;49.902;8.680;2023-04-24T09:34:47;7;7;
30342;PMS5003;17145;49.902;8.680;2023-04-24T09:42:29;8;8;
30342;PMS5003;17145;49.902;8.680;2023-04-24T09:44:57;12;12;
30342;PMS5003;17145;49.902;8.680;2023-04-24T09:47:25;14;11;
30342;PMS5003;17145;49.902;8.680;2023-04-24T09:49:53;12;12;
30342;PMS5003;17145;49.902;8.680;2023-04-24T09:52:24;9;9;
30342;PMS5003;17145;49.902;8.680;2023-04-24T09:54:52;15;10;
30342;PMS5003;17145;49.902;8.680;2023-04-24T09:57:20;12;9;
30342;PMS5003;17145;49.902;8.680;2023-04-24T09:59:47;11;9;
30342;PMS5003;17145;49.902;8.680;2023-04-24T10:02:16;9;9;
30342;PMS5003;17145;49.902;8.680;2023-04-24T10:04:53;13;12;
30342;PMS5003;17145;49.902;8.680;2023-04-24T10:07:25;12;12;
30342;PMS5003;17145;49.902;8.680;2023-04-24T10:09:52;11;11;
30342;PMS5003;17145;49.902;8.680;2023-04-24T10:12:20;12;12;
30342;PMS5003;17145;49.902;8.680;2023-04-24T10:14:48;11;9;
30342;PMS5003;17145;49.902;8.680;2023-04-24T10:17:17;13;11;
30342;PMS5003;17145;49.902;8.680;2023-04-24T10:19:45;11;11;
30342;PMS5003;17145;49.902;8.680;2023-04-24T10:22:14;12;11;
30342;PMS5003;17145;49.902;8.680;2023-04-24T10:24:44;11;9;
30342;PMS5003;17145;49.902;8.680;2023-04-24T10:27:14;13;12;
30342;PMS5003;17145;49.902;8.680;2023-04-24T10:29:43;12;11;
30342;PMS5003;17145;49.902;8.680;2023-04-24T10:32:12;13;12;
30342;PMS5003;17145;49.902;8.680;2023-04-24T10:34:39;13;12;
30342;PMS5003;17145;49.902;8.680;2023-04-24T10:37:07;12;11;
30342;PMS5003;17145;49.902;8.680;2023-04-24T10:39:34;7;7;
30342;PMS5003;17145;49.902;8.680;2023-04-24T10:42:05;8;7;
30342;PMS5003;17145;49.902;8.680;2023-04-24T10:44:41;9;8;
30342;PMS5003;17145;49.902;8.680;2023-04-24T10:47:12;7;7;
30342;PMS5003;17145;49.902;8.680;2023-04-24T10:49:40;7;7;
30342;PMS5003;17145;49.902;8.680;2023-04-24T10:52:08;8;7;
30342;PMS5003;17145;49.902;8.680;2023-04-24T10:54:36;8;8;
30342;PMS5003;17145;49.902;8.680;2023-04-24T11:02:39;10;8;
30342;PMS5003;17145;49.902;8.680;2023-04-24T11:05:08;7;7;
30342;PMS5003;17145;49.902;8.680;2023-04-24T11:12:53;7;6;
30342;PMS5003;17145;49.902;8.680;2023-04-24T11:15:20;10;10;
30342;PMS5003;17145;49.902;8.680;2023-04-24T11:17:48;7;7;
30342;PMS5003;17145;49.902;8.680;2023-04-24T11:20:23;8;8;
30342;PMS5003;17145;49.902;8.680;2023-04-24T11:22:52;8;7;
30342;PMS5003;17145;49.902;8.680;2023-04-24T11:25:21;7;7;
30342;PMS5003;17145;49.902;8.680;2023-04-24T11:27:49;7;6;
30342;PMS5003;17145;49.902;8.680;2023-04-24T11:30:17;7;7;
30342;PMS5003;17145;49.902;8.680;2023-04-24T11:32:47;7;7;
30342;PMS5003;17145;49.902;8.680;2023-04-24T11:35:17;8;7;
30342;PMS5003;17145;49.902;8.680;2023-04-24T11:37:46;6;6;
30342;PMS5003;17145;49.902;8.680;2023-04-24T11:40:16;8;7;
30342;PMS5003;17145;49.902;8.680;2023-04-24T11:42:45;8;7;
30342;PMS5003;17145;49.902;8.680;2023-04-24T11:45:14;7;7;
30342;PMS5003;17145;49.902;8.680;2023-04-24T11:47:43;5;5;
30342;PMS5003;17145;49.902;8.680;2023-04-24T11:50:12;7;7;
30342;PMS5003;17145;49.902;8.680;2023-04-24T11:52:41;8;7;
30342;PMS5003;17145;49.902;8.680;2023-04-24T11:57:47;6;6;
30342;PMS5003;17145;49.902;8.680;2023-04-24T12:00:17;7;7;
30342;PMS5003;17145;49.902;8.680;2023-04-24T12:02:46;7;7;
30342;PMS5003;17145;49.902;8.680;2023-04-24T12:05:19;9;9;
30342;PMS5003;17145;49.902;8.680;2023-04-24T12:07:46;7;6;
30342;PMS5003;17145;49.902;8.680;2023-04-24T12:10:14;7;7;
30342;PMS5003;17145;49.902;8.680;2023-04-24T12:12:46;11;10;
30342;PMS5003;17145;49.902;8.680;2023-04-24T12:15:13;11;10;
30342;PMS5003;17145;49.902;8.680;2023-04-24T12:17:44;10;9;
30342;PMS5003;17145;49.902;8.680;2023-04-24T12:20:12;10;7;
30342;PMS5003;17145;49.902;8.680;2023-04-24T12:22:44;9;9;
30342;PMS5003;17145;49.902;8.680;2023-04-24T12:25:13;9;9;
30342;PMS5003;17145;49.902;8.680;2023-04-24T12:27:41;10;10;
30342;PMS5003;17145;49.902;8.680;2023-04-24T12:30:10;6;6;
30342;PMS5003;17145;49.902;8.680;2023-04-24T12:32:41;9;7;
30342;PMS5003;17145;49.902;8.680;2023-04-24T12:35:09;7;7;
30342;PMS5003;17145;49.902;8.680;2023-04-24T12:37:36;9;9;
30342;PMS5003;17145;49.902;8.680;2023-04-24T12:40:05;6;6;
30342;PMS5003;17145;49.902;8.680;2023-04-24T12:42:34;10;10;
30342;PMS5003;17145;49.902;8.680;2023-04-24T12:45:07;7;6;
30342;PMS5003;17145;49.902;8.680;2023-04-24T12:47:35;9;9;
30342;PMS5003;17145;49.902;8.680;2023-04-24T12:50:02;9;9;
30342;PMS5003;17145;49.902;8.680;2023-04-24T12:52:30;10;10;
30342;PMS5003;17145;49.902;8.680;2023-04-24T12:54:58;9;9;
30342;PMS5003;17145;49.902;8.680;2023-04-24T12:57:28;10;9;
30342;PMS5003;17145;49.902;8.680;2023-04-24T12:59:57;7;7;
30342;PMS5003;17145;49.902;8.680;2023-04-24T13:02:26;10;10;
30342;PMS5003;17145;49.902;8.680;2023-04-24T13:04:54;9;9;
30342;PMS5003;17145;49.902;8.680;2023-04-24T13:07:22;9;7;
30342;PMS5003;17145;49.902;8.680;2023-04-24T13:09:50;9;9;
30342;PMS5003;17145;49.902;8.680;2023-04-24T13:12:19;11;10;
30342;PMS5003;17145;49.902;8.680;2023-04-24T13:14:46;10;10;
30342;PMS5003;17145;49.902;8.680;2023-04-24T13:17:14;10;10;
30342;PMS5003;17145;49.902;8.680;2023-04-24T13:19:42;10;9;
30342;PMS5003;17145;49.902;8.680;2023-04-24T13:22:11;11;10;
30342;PMS5003;17145;49.902;8.680;2023-04-24T13:24:39;10;9;
30342;PMS5003;17145;49.902;8.680;2023-04-24T13:27:07;11;11;
30342;PMS5003;17145;49.902;8.680;2023-04-24T13:29:35;10;10;
30342;PMS5003;17145;49.902;8.680;2023-04-24T13:32:03;7;7;
30342;PMS5003;17145;49.902;8.680;2023-04-24T13:34:30;10;10;
30342;PMS5003;17145;49.902;8.680;2023-04-24T13:36:58;11;10;
30342;PMS5003;17145;49.902;8.680;2023-04-24T13:39:25;9;9;
30342;PMS5003;17145;49.902;8.680;2023-04-24T13:41:53;11;11;
30342;PMS5003;17145;49.902;8.680;2023-04-24T13:44:21;10;9;
30342;PMS5003;17145;49.902;8.680;2023-04-24T13:46:50;9;9;
30342;PMS5003;17145;49.902;8.680;2023-04-24T13:49:20;7;7;
30342;PMS5003;17145;49.902;8.680;2023-04-24T13:51:48;7;7;
30342;PMS5003;17145;49.902;8.680;2023-04-24T13:54:16;10;9;
30342;PMS5003;17145;49.902;8.680;2023-04-24T13:56:43;9;9;
30342;PMS5003;17145;49.902;8.680;2023-04-24T13:59:11;12;9;
30342;PMS5003;17145;49.902;8.680;2023-04-24T14:01:39;7;7;
30342;PMS5003;17145;49.902;8.680;2023-04-24T14:04:07;10;9;
30342;PMS5003;17145;49.902;8.680;2023-04-24T14:06:34;11;10;
30342;PMS5003;17145;49.902;8.680;2023-04-24T14:09:01;9;9;
30342;PMS5003;17145;49.902;8.680;2023-04-24T14:11:29;9;9;
30342;PMS5003;17145;49.902;8.680;2023-04-24T14:13:56;9;9;
30342;PMS5003;17145;49.902;8.680;2023-04-24T14:16:24;6;6;
30342;PMS5003;17145;49.902;8.680;2023-04-24T14:18:52;9;7;
30342;PMS5003;17145;49.902;8.680;2023-04-24T14:21:19;6;6;
30342;PMS5003;17145;49.902;8.680;2023-04-24T14:23:46;9;9;
30342;PMS5003;17145;49.902;8.680;2023-04-24T14:26:14;8;8;
30342;PMS5003;17145;49.902;8.680;2023-04-24T14:28:41;10;8;
30342;PMS5003;17145;49.902;8.680;2023-04-24T14:31:08;9;7;
30342;PMS5003;17145;49.902;8.680;2023-04-24T14:33:36;10;9;
30342;PMS5003;17145;49.902;8.680;2023-04-24T14:36:03;7;7;
30342;PMS5003;17145;49.902;8.680;2023-04-24T14:38:30;9;9;
30342;PMS5003;17145;49.902;8.680;2023-04-24T14:40:58;10;9;
30342;PMS5003;17145;49.902;8.680;2023-04-24T14:43:25;6;6;
30342;PMS5003;17145;49.902;8.680;2023-04-24T14:45:53;6;6;
30342;PMS5003;17145;49.902;8.680;2023-04-24T14:48:20;9;8;
30342;PMS5003;17145;49.902;8.680;2023-04-24T14:50:47;9;7;
30342;PMS5003;17145;49.902;8.680;2023-04-24T14:53:15;6;6;
30342;PMS5003;17145;49.902;8.680;2023-04-24T14:55:42;9;7;
30342;PMS5003;17145;49.902;8.680;2023-04-24T14:58:10;7;7;
30342;PMS5003;17145;49.902;8.680;2023-04-24T15:00:37;9;9;
30342;PMS5003;17145;49.902;8.680;2023-04-24T15:03:05;7;7;
30342;PMS5003;17145;49.902;8.680;2023-04-24T15:05:32;7;6;
30342;PMS5003;17145;49.902;8.680;2023-04-24T15:08:00;6;6;
30342;PMS5003;17145;49.902;8.680;2023-04-24T15:10:27;9;8;
30342;PMS5003;17145;49.902;8.680;2023-04-24T15:12:55;9;8;
30342;PMS5003;17145;49.902;8.680;2023-04-24T15:15:22;9;8;
30342;PMS5003;17145;49.902;8.680;2023-04-24T15:17:50;6;6;
30342;PMS5003;17145;49.902;8.680;2023-04-24T15:20:17;8;8;
30342;PMS5003;17145;49.902;8.680;2023-04-24T15:22:44;9;9;
30342;PMS5003;17145;49.902;8.680;2023-04-24T15:25:12;9;9;
30342;PMS5003;17145;49.902;8.680;2023-04-24T15:27:40;8;8;
30342;PMS5003;17145;49.902;8.680;2023-04-24T15:30:08;6;6;
30342;PMS5003;17145;49.902;8.680;2023-04-24T15:32:37;8;8;
30342;PMS5003;17145;49.902;8.680;2023-04-24T15:35:05;9;7;
30342;PMS5003;17145;49.902;8.680;2023-04-24T15:37:33;6;6;
30342;PMS5003;17145;49.902;8.680;2023-04-24T15:40:01;8;8;
30342;PMS5003;17145;49.902;8.680;2023-04-24T15:42:28;8;5;
30342;PMS5003;17145;49.902;8.680;2023-04-24T15:44:56;8;8;
30342;PMS5003;17145;49.902;8.680;2023-04-24T15:47:24;8;8;
30342;PMS5003;17145;49.902;8.680;2023-04-24T15:49:51;8;6;
30342;PMS5003;17145;49.902;8.680;2023-04-24T15:52:19;8;8;
30342;PMS5003;17145;49.902;8.680;2023-04-24T15:54:46;7;7;
30342;PMS5003;17145;49.902;8.680;2023-04-24T15:57:14;9;9;
30342;PMS5003;17145;49.902;8.680;2023-04-24T15:59:41;6;6;
30342;PMS5003;17145;49.902;8.680;2023-04-24T16:02:10;9;8;
30342;PMS5003;17145;49.902;8.680;2023-04-24T16:04:39;9;9;
30342;PMS5003;17145;49.902;8.680;2023-04-24T16:07:07;8;8;
30342;PMS5003;17145;49.902;8.680;2023-04-24T16:09:34;8;8;
30342;PMS5003;17145;49.902;8.680;2023-04-24T16:12:02;8;8;
30342;PMS5003;17145;49.902;8.680;2023-04-24T16:14:29;8;8;
30342;PMS5003;17145;49.902;8.680;2023-04-24T16:16:57;8;8;
30342;PMS5003;17145;49.902;8.680;2023-04-24T16:19:24;9;6;
30342;PMS5003;17145;49.902;8.680;2023-04-24T16:21:52;8;6;
30342;PMS5003;17145;49.902;8.680;2023-04-24T16:24:19;9;9;
30342;PMS5003;17145;49.902;8.680;2023-04-24T16:26:47;6;6;
30342;PMS5003;17145;49.902;8.680;2023-04-24T16:29:14;9;8;
30342;PMS5003;17145;49.902;8.680;2023-04-24T16:31:42;8;8;
30342;PMS5003;17145;49.902;8.680;2023-04-24T16:34:09;8;8;
30342;PMS5003;17145;49.902;8.680;2023-04-24T16:36:37;5;5;
30342;PMS5003;17145;49.902;8.680;2023-04-24T16:39:04;8;6;
30342;PMS5003;17145;49.902;8.680;2023-04-24T16:41:32;9;9;
30342;PMS5003;17145;49.902;8.680;2023-04-24T16:44:00;8;8;
30342;PMS5003;17145;49.902;8.680;2023-04-24T16:46:27;8;8;
30342;PMS5003;17145;49.902;8.680;2023-04-24T16:48:54;8;8;
30342;PMS5003;17145;49.902;8.680;2023-04-24T16:51:22;12;11;
30342;PMS5003;17145;49.902;8.680;2023-04-24T16:53:50;8;8;
30342;PMS5003;17145;49.902;8.680;2023-04-24T16:56:17;12;11;
30342;PMS5003;17145;49.902;8.680;2023-04-24T16:58:45;12;12;